createdAt,value
2022-10-01T00:02:21.965Z,84.10
2022-10-01T00:04:54.662Z,83.72
2022-10-01T00:07:22.972Z,83.72
2022-10-01T00:09:51.947Z,83.66
2022-10-01T00:12:19.846Z,83.57
2022-10-01T00:14:47.741Z,83.34
2022-10-01T00:17:15.404Z,83.32
2022-10-01T00:19:43.063Z,83.43
2022-10-01T00:22:10.759Z,83.27
2022-10-01T00:24:38.497Z,83.72
2022-10-01T00:27:07.837Z,83.65
2022-10-01T00:29:36.435Z,83.80
2022-10-01T00:32:04.144Z,83.61
2022-10-01T00:34:31.817Z,83.54
2022-10-01T00:36:59.501Z,83.44
2022-10-01T00:39:27.132Z,83.00
2022-10-01T00:41:54.806Z,82.95
2022-10-01T00:44:33.136Z,82.61
2022-10-01T00:47:07.063Z,82.96
2022-10-01T00:49:38.543Z,82.43
2022-10-01T00:52:10.379Z,82.56
2022-10-01T00:54:43.583Z,82.56
2022-10-01T00:57:15.112Z,82.79
2022-10-01T00:59:44.416Z,82.90
2022-10-01T01:02:12.381Z,82.99
2022-10-01T01:04:41.204Z,83.15
2022-10-01T01:07:09.970Z,82.97
2022-10-01T01:09:40.840Z,82.45
2022-10-01T01:12:16.863Z,82.60
2022-10-01T01:14:52.733Z,82.90
2022-10-01T01:17:25.459Z,83.47
2022-10-01T01:20:09.427Z,84.39
2022-10-01T01:22:43.947Z,84.79
2022-10-01T01:25:19.689Z,85.57
2022-10-01T01:28:00.414Z,86.27
2022-10-01T01:30:28.999Z,86.96
2022-10-01T01:33:02.311Z,87.42
2022-10-01T01:35:35.268Z,88.79
2022-10-01T01:38:08.316Z,89.66
2022-10-01T01:40:38.966Z,90.51
2022-10-01T01:43:12.111Z,91.28
2022-10-01T01:45:40.993Z,91.80
2022-10-01T01:48:09.828Z,92.56
2022-10-01T01:50:46.224Z,93.65
2022-10-01T01:53:15.095Z,93.86
2022-10-01T01:55:44.211Z,94.94
2022-10-01T01:58:13.500Z,95.67
2022-10-01T02:00:41.225Z,96.65
2022-10-01T02:03:09.095Z,97.35
2022-10-01T02:05:45.679Z,98.04
2022-10-01T02:08:36.836Z,98.83
2022-10-01T02:11:17.517Z,99.10
2022-10-01T02:13:55.338Z,100.00
2022-10-01T02:16:28.636Z,100.00
2022-10-01T02:19:01.484Z,100.00
2022-10-01T02:21:33.974Z,100.00
2022-10-01T02:24:08.562Z,100.00
2022-10-01T02:26:38.957Z,100.00
2022-10-01T02:29:11.279Z,100.00
2022-10-01T02:31:41.103Z,100.00
2022-10-01T02:34:12.592Z,100.00
2022-10-01T02:36:42.467Z,100.00
2022-10-01T02:39:12.092Z,100.00
2022-10-01T02:41:39.921Z,100.00
2022-10-01T02:44:13.456Z,100.00
2022-10-01T02:46:46.768Z,100.00
2022-10-01T02:49:14.987Z,100.00
2022-10-01T02:51:53.294Z,100.00
2022-10-01T02:54:26.766Z,100.00
2022-10-01T02:57:12.162Z,100.00
2022-10-01T02:59:41.043Z,100.00
2022-10-01T03:02:08.839Z,100.00
2022-10-01T03:04:36.560Z,100.00
2022-10-01T03:07:04.460Z,100.00
2022-10-01T03:09:32.514Z,100.00
2022-10-01T03:12:00.933Z,100.00
2022-10-01T03:14:28.882Z,100.00
2022-10-01T03:16:58.079Z,100.00
2022-10-01T03:19:25.644Z,100.00
2022-10-01T03:21:53.220Z,100.00
2022-10-01T03:24:20.749Z,100.00
2022-10-01T03:26:49.017Z,100.00
2022-10-01T03:29:16.545Z,100.00
2022-10-01T03:31:44.329Z,100.00
2022-10-01T03:34:13.535Z,100.00
2022-10-01T03:36:41.124Z,100.00
2022-10-01T03:39:08.892Z,100.00
2022-10-01T03:41:37.100Z,100.00
2022-10-01T03:44:04.767Z,100.00
2022-10-01T03:46:32.720Z,100.00
2022-10-01T03:49:00.856Z,100.00
2022-10-01T03:51:30.533Z,100.00
2022-10-01T03:53:58.666Z,100.00
2022-10-01T03:56:26.934Z,100.00
2022-10-01T03:58:54.722Z,100.00
2022-10-01T04:01:22.737Z,100.00
2022-10-01T04:03:50.900Z,100.00
2022-10-01T04:06:18.516Z,100.00
2022-10-01T04:08:47.480Z,100.00
2022-10-01T04:11:15.182Z,100.00
2022-10-01T04:13:42.872Z,100.00
2022-10-01T04:16:10.861Z,100.00
2022-10-01T04:18:38.527Z,100.00
2022-10-01T04:21:06.192Z,100.00
2022-10-01T04:23:34.089Z,100.00
2022-10-01T04:26:03.289Z,100.00
2022-10-01T04:28:32.458Z,100.00
2022-10-01T04:31:14.039Z,100.00
2022-10-01T04:33:41.947Z,100.00
2022-10-01T04:36:09.703Z,100.00
2022-10-01T04:38:37.492Z,100.00
2022-10-01T04:41:06.753Z,100.00
2022-10-01T04:43:34.389Z,100.00
2022-10-01T04:46:02.080Z,100.00
2022-10-01T04:48:29.606Z,100.00
2022-10-01T04:50:57.156Z,100.00
2022-10-01T04:53:24.920Z,100.00
2022-10-01T04:55:52.801Z,100.00
2022-10-01T04:58:21.637Z,100.00
2022-10-01T05:00:49.683Z,100.00
2022-10-01T05:03:17.291Z,100.00
2022-10-01T05:05:45.337Z,100.00
2022-10-01T05:08:12.866Z,100.00
2022-10-01T05:10:40.528Z,100.00
2022-10-01T05:13:08.325Z,100.00
2022-10-01T05:15:37.276Z,100.00
2022-10-01T05:18:04.827Z,100.00
2022-10-01T05:20:33.906Z,100.00
2022-10-01T05:23:01.555Z,100.00
2022-10-01T05:25:29.171Z,100.00
2022-10-01T05:28:05.035Z,100.00
2022-10-01T05:30:33.513Z,100.00
2022-10-01T05:33:04.154Z,100.00
2022-10-01T05:35:32.568Z,100.00
2022-10-01T05:38:02.632Z,100.00
2022-10-01T05:40:31.164Z,100.00
2022-10-01T05:43:00.106Z,100.00
2022-10-01T05:45:28.439Z,100.00
2022-10-01T05:48:00.340Z,100.00
2022-10-01T05:50:31.409Z,100.00
2022-10-01T05:52:59.744Z,100.00
2022-10-01T05:55:31.834Z,100.00
2022-10-01T05:58:01.148Z,100.00
2022-10-01T06:00:30.435Z,100.00
2022-10-01T06:03:00.492Z,100.00
2022-10-01T06:05:30.721Z,100.00
2022-10-01T06:07:58.968Z,100.00
2022-10-01T06:10:30.065Z,100.00
2022-10-01T06:13:00.289Z,100.00
2022-10-01T06:15:27.856Z,100.00
2022-10-01T06:17:55.620Z,100.00
2022-10-01T06:20:24.069Z,100.00
2022-10-01T06:22:57.461Z,100.00
2022-10-01T06:25:25.611Z,100.00
2022-10-01T06:27:57.759Z,100.00
2022-10-01T06:30:27.198Z,100.00
2022-10-01T06:32:55.100Z,100.00
2022-10-01T06:35:22.679Z,100.00
2022-10-01T06:37:50.476Z,100.00
2022-10-01T06:40:19.376Z,100.00
2022-10-01T06:42:51.742Z,100.00
2022-10-01T06:45:21.320Z,100.00
2022-10-01T06:47:54.401Z,100.00
2022-10-01T06:50:22.036Z,100.00
2022-10-01T06:52:52.718Z,100.00
2022-10-01T06:55:23.403Z,100.00
2022-10-01T06:57:55.272Z,100.00
2022-10-01T07:00:23.676Z,100.00
2022-10-01T07:02:51.507Z,100.00
2022-10-01T07:05:19.271Z,100.00
2022-10-01T07:07:48.267Z,100.00
2022-10-01T07:10:17.170Z,100.00
2022-10-01T07:12:48.844Z,100.00
2022-10-01T07:15:18.355Z,100.00
2022-10-01T07:17:48.391Z,100.00
2022-10-01T07:20:17.643Z,100.00
2022-10-01T07:22:45.686Z,100.00
2022-10-01T07:25:14.154Z,100.00
2022-10-01T07:27:42.161Z,100.00
2022-10-01T07:30:12.169Z,100.00
2022-10-01T07:32:39.787Z,100.00
2022-10-01T07:35:08.944Z,100.00
2022-10-01T07:37:36.522Z,100.00
2022-10-01T07:40:07.400Z,100.00
2022-10-01T07:42:35.702Z,100.00
2022-10-01T07:45:06.523Z,100.00
2022-10-01T07:47:35.531Z,100.00
2022-10-01T07:50:03.192Z,100.00
2022-10-01T07:52:30.844Z,100.00
2022-10-01T07:54:58.406Z,100.00
2022-10-01T07:57:25.976Z,100.00
2022-10-01T07:59:55.877Z,100.00
2022-10-01T08:02:23.861Z,100.00
2022-10-01T08:05:10.286Z,100.00
2022-10-01T08:07:38.054Z,100.00
2022-10-01T08:10:06.519Z,100.00
2022-10-01T08:12:34.099Z,100.00
2022-10-01T08:15:02.287Z,100.00
2022-10-01T08:17:29.877Z,100.00
2022-10-01T08:19:58.857Z,100.00
2022-10-01T08:22:26.391Z,100.00
2022-10-01T08:24:54.548Z,100.00
2022-10-01T08:27:25.028Z,100.00
2022-10-01T08:29:53.408Z,100.00
2022-10-01T08:32:21.759Z,100.00
2022-10-01T08:34:53.307Z,100.00
2022-10-01T08:37:29.604Z,100.00
2022-10-01T08:39:57.814Z,100.00
2022-10-01T08:42:38.528Z,100.00
2022-10-01T08:45:12.376Z,100.00
2022-10-01T08:47:43.664Z,100.00
2022-10-01T08:50:19.904Z,100.00
2022-10-01T08:52:54.799Z,100.00
2022-10-01T08:55:26.867Z,100.00
2022-10-01T08:57:55.814Z,100.00
2022-10-01T09:00:23.720Z,100.00
2022-10-01T09:02:52.780Z,100.00
2022-10-01T09:05:26.106Z,100.00
2022-10-01T09:08:06.169Z,100.00
2022-10-01T09:10:44.772Z,100.00
2022-10-01T09:13:40.427Z,100.00
2022-10-01T09:16:16.351Z,100.00
2022-10-01T09:18:56.410Z,100.00
2022-10-01T09:21:29.095Z,100.00
2022-10-01T09:24:04.373Z,100.00
2022-10-01T09:26:32.222Z,100.00
2022-10-01T09:29:03.066Z,100.00
2022-10-01T09:31:38.616Z,100.00
2022-10-01T09:34:14.319Z,100.00
2022-10-01T09:36:49.031Z,100.00
2022-10-01T09:39:24.207Z,100.00
2022-10-01T09:41:52.185Z,100.00
2022-10-01T09:44:27.667Z,100.00
2022-10-01T09:46:56.192Z,100.00
2022-10-01T09:49:30.952Z,100.00
2022-10-01T09:52:03.732Z,100.00
2022-10-01T09:54:40.253Z,100.00
2022-10-01T09:57:11.828Z,100.00
2022-10-01T09:59:46.515Z,100.00
2022-10-01T10:02:20.616Z,100.00
2022-10-01T10:04:48.627Z,100.00
2022-10-01T10:07:19.689Z,100.00
2022-10-01T10:09:48.707Z,100.00
2022-10-01T10:12:30.315Z,100.00
2022-10-01T10:14:58.927Z,100.00
2022-10-01T10:17:26.752Z,100.00
2022-10-01T10:19:55.092Z,100.00
2022-10-01T10:22:25.931Z,100.00
2022-10-01T10:24:57.820Z,100.00
2022-10-01T10:27:27.399Z,100.00
2022-10-01T10:30:08.540Z,100.00
2022-10-01T10:32:36.510Z,100.00
2022-10-01T10:35:10.538Z,100.00
2022-10-01T10:37:45.421Z,100.00
2022-10-01T10:40:20.018Z,100.00
2022-10-01T10:42:49.892Z,100.00
2022-10-01T10:45:20.996Z,100.00
2022-10-01T10:47:52.419Z,100.00
2022-10-01T10:50:30.770Z,100.00
2022-10-01T10:52:59.047Z,100.00
2022-10-01T10:55:30.965Z,100.00
2022-10-01T10:58:11.844Z,100.00
2022-10-01T11:00:47.588Z,100.00
2022-10-01T11:03:17.810Z,100.00
2022-10-01T11:05:45.496Z,100.00
2022-10-01T11:08:19.532Z,100.00
2022-10-01T11:11:00.534Z,100.00
2022-10-01T11:13:42.735Z,100.00
2022-10-01T11:16:32.057Z,100.00
2022-10-01T11:19:15.021Z,100.00
2022-10-01T11:21:57.033Z,100.00
2022-10-01T11:24:40.496Z,100.00
2022-10-01T11:27:14.722Z,100.00
2022-10-01T11:29:51.524Z,100.00
2022-10-01T11:32:29.270Z,100.00
2022-10-01T11:35:18.584Z,100.00
2022-10-01T11:38:01.745Z,100.00
2022-10-01T11:40:36.588Z,100.00
2022-10-01T11:43:12.558Z,100.00
2022-10-01T11:45:44.792Z,100.00
2022-10-01T11:48:24.371Z,100.00
2022-10-01T11:50:56.321Z,100.00
2022-10-01T11:53:30.710Z,100.00
2022-10-01T11:56:19.568Z,100.00
2022-10-01T11:58:54.454Z,100.00
2022-10-01T12:01:34.447Z,100.00
2022-10-01T12:04:07.672Z,100.00
2022-10-01T12:06:40.754Z,100.00
2022-10-01T12:09:14.036Z,100.00
2022-10-01T12:11:47.159Z,100.00
2022-10-01T12:14:20.799Z,100.00
2022-10-01T12:16:55.247Z,100.00
2022-10-01T12:19:27.058Z,100.00
2022-10-01T12:22:00.560Z,100.00
2022-10-01T12:24:31.370Z,100.00
2022-10-01T12:27:10.241Z,100.00
2022-10-01T12:29:47.131Z,100.00
2022-10-01T12:32:23.937Z,100.00
2022-10-01T12:34:59.810Z,100.00
2022-10-01T12:37:40.296Z,100.00
2022-10-01T12:40:22.178Z,100.00
2022-10-01T12:43:20.632Z,100.00
2022-10-01T12:45:57.161Z,100.00
2022-10-01T12:48:32.053Z,100.00
2022-10-01T12:51:16.481Z,100.00
2022-10-01T12:53:47.277Z,100.00
2022-10-01T12:56:27.555Z,100.00
2022-10-01T12:59:11.861Z,100.00
2022-10-01T13:01:59.735Z,100.00
2022-10-01T13:04:40.271Z,100.00
2022-10-01T13:07:21.958Z,100.00
2022-10-01T13:10:00.285Z,100.00
2022-10-01T13:12:44.948Z,100.00
2022-10-01T13:15:15.125Z,100.00
2022-10-01T13:17:49.941Z,100.00
2022-10-01T13:20:29.001Z,100.00
2022-10-01T13:23:05.264Z,100.00
2022-10-01T13:25:41.791Z,100.00
2022-10-01T13:28:17.445Z,100.00
2022-10-01T13:30:59.051Z,100.00
2022-10-01T13:33:29.730Z,100.00
2022-10-01T13:35:59.369Z,100.00
2022-10-01T13:38:40.132Z,100.00
2022-10-01T13:41:18.567Z,100.00
2022-10-01T13:43:57.082Z,100.00
2022-10-01T13:46:27.527Z,100.00
2022-10-01T13:48:57.133Z,100.00
2022-10-01T13:51:35.251Z,100.00
2022-10-01T13:54:04.637Z,100.00
2022-10-01T13:56:35.057Z,100.00
2022-10-01T13:59:03.698Z,100.00
2022-10-01T14:01:40.699Z,100.00
2022-10-01T14:04:20.995Z,100.00
2022-10-01T14:06:53.655Z,100.00
2022-10-01T14:09:24.099Z,100.00
2022-10-01T14:12:14.694Z,100.00
2022-10-01T14:15:07.463Z,100.00
2022-10-01T14:17:36.431Z,100.00
2022-10-01T14:20:06.872Z,100.00
2022-10-01T14:22:48.253Z,100.00
2022-10-01T14:25:29.711Z,100.00
2022-10-01T14:28:25.394Z,100.00
2022-10-01T14:30:59.523Z,100.00
2022-10-01T14:33:53.144Z,100.00
2022-10-01T14:36:29.406Z,100.00
2022-10-01T14:39:05.971Z,100.00
2022-10-01T14:41:35.655Z,100.00
2022-10-01T14:44:03.312Z,100.00
2022-10-01T14:46:31.044Z,100.00
2022-10-01T14:48:59.891Z,100.00
2022-10-01T14:51:31.708Z,100.00
2022-10-01T14:54:01.435Z,100.00
2022-10-01T14:56:29.820Z,100.00
2022-10-01T14:59:02.674Z,100.00
2022-10-01T15:01:30.363Z,100.00
2022-10-01T15:03:58.086Z,100.00
2022-10-01T15:06:29.723Z,100.00
2022-10-01T15:09:14.269Z,99.55
2022-10-01T15:11:44.595Z,100.00
2022-10-01T15:14:18.587Z,100.00
2022-10-01T15:16:46.407Z,100.00
2022-10-01T15:19:16.622Z,100.00
2022-10-01T15:21:49.867Z,100.00
2022-10-01T15:24:25.763Z,100.00
2022-10-01T15:26:55.388Z,100.00
2022-10-01T15:29:23.420Z,100.00
2022-10-01T15:31:53.037Z,100.00
2022-10-01T15:34:23.620Z,100.00
2022-10-01T15:36:51.991Z,100.00
2022-10-01T15:39:30.205Z,100.00
2022-10-01T15:41:58.915Z,100.00
2022-10-01T15:44:46.265Z,100.00
2022-10-01T15:47:28.016Z,100.00
2022-10-01T15:50:07.173Z,100.00
2022-10-01T15:52:51.809Z,100.00
2022-10-01T15:55:24.700Z,98.50
2022-10-01T15:58:00.388Z,98.64
2022-10-01T16:00:30.433Z,95.08
2022-10-01T16:02:59.147Z,93.77
2022-10-01T16:05:32.315Z,95.01
2022-10-01T16:08:00.524Z,95.96
2022-10-01T16:10:36.772Z,92.91
2022-10-01T16:13:30.103Z,91.20
2022-10-01T16:16:09.326Z,89.36
2022-10-01T16:18:38.307Z,89.93
2022-10-01T16:21:09.048Z,90.36
2022-10-01T16:23:37.833Z,90.59
2022-10-01T16:26:32.178Z,90.80
2022-10-01T16:29:02.444Z,89.74
2022-10-01T16:31:30.950Z,89.70
2022-10-01T16:33:58.671Z,90.14
2022-10-01T16:36:26.321Z,90.88
2022-10-01T16:38:54.087Z,91.37
2022-10-01T16:41:26.052Z,92.05
2022-10-01T16:43:54.862Z,92.02
2022-10-01T16:46:22.807Z,92.41
2022-10-01T16:48:52.310Z,93.31
2022-10-01T16:51:20.446Z,93.99
2022-10-01T16:53:48.257Z,94.14
2022-10-01T16:56:15.875Z,94.95
2022-10-01T16:58:45.190Z,95.50
2022-10-01T17:01:15.061Z,96.10
2022-10-01T17:03:43.133Z,95.85
2022-10-01T17:06:10.783Z,95.68
2022-10-01T17:08:38.340Z,95.67
2022-10-01T17:11:09.543Z,95.77
2022-10-01T17:13:39.634Z,95.34
2022-10-01T17:16:09.811Z,95.38
2022-10-01T17:18:37.410Z,94.60
2022-10-01T17:21:05.745Z,94.58
2022-10-01T17:23:34.820Z,94.40
2022-10-01T17:26:03.353Z,93.80
2022-10-01T17:28:31.252Z,93.68
2022-10-01T17:30:58.926Z,92.91
2022-10-01T17:33:28.267Z,92.96
2022-10-01T17:35:56.045Z,92.91
2022-10-01T17:38:24.271Z,93.32
2022-10-01T17:40:56.394Z,93.91
2022-10-01T17:43:24.567Z,94.81
2022-10-01T17:45:56.672Z,95.41
2022-10-01T17:48:24.548Z,95.65
2022-10-01T17:51:01.615Z,96.13
2022-10-01T17:53:34.204Z,96.46
2022-10-01T17:56:06.782Z,96.55
2022-10-01T17:58:34.315Z,96.58
2022-10-01T18:01:01.967Z,97.17
2022-10-01T18:03:29.633Z,97.60
2022-10-01T18:06:03.478Z,97.78
2022-10-01T18:08:51.154Z,97.61
2022-10-01T18:11:20.236Z,97.77
2022-10-01T18:13:48.332Z,98.27
2022-10-01T18:16:19.035Z,98.44
2022-10-01T18:21:37.094Z,98.83
2022-10-01T18:24:05.192Z,99.40
2022-10-01T18:26:33.231Z,99.49
2022-10-01T18:29:01.203Z,99.32
2022-10-01T18:31:37.051Z,99.31
2022-10-01T18:34:12.389Z,99.39
2022-10-01T18:36:50.555Z,99.73
2022-10-01T18:39:24.666Z,99.81
2022-10-01T18:41:52.543Z,100.00
2022-10-01T18:44:21.592Z,100.00
2022-10-01T18:47:12.634Z,100.00
2022-10-01T18:49:57.595Z,100.00
2022-10-01T18:52:43.864Z,100.00
2022-10-01T18:55:30.429Z,100.00
2022-10-01T18:58:19.182Z,100.00
2022-10-01T19:00:55.138Z,100.00
2022-10-01T19:03:54.787Z,100.00
2022-10-01T19:06:41.763Z,100.00
2022-10-01T19:09:26.596Z,100.00
2022-10-01T19:12:04.203Z,100.00
2022-10-01T19:15:00.388Z,100.00
2022-10-01T19:17:48.512Z,100.00
2022-10-01T19:20:27.014Z,100.00
2022-10-01T19:23:07.685Z,100.00
2022-10-01T19:25:41.916Z,100.00
2022-10-01T19:28:23.828Z,100.00
2022-10-01T19:31:02.992Z,100.00
2022-10-01T19:33:33.292Z,100.00
2022-10-01T19:36:02.123Z,100.00
2022-10-01T19:38:35.515Z,100.00
2022-10-01T19:41:12.903Z,100.00
2022-10-01T19:43:47.236Z,100.00
2022-10-01T19:46:22.204Z,100.00
2022-10-01T19:48:54.737Z,100.00
2022-10-01T19:51:25.725Z,100.00
2022-10-01T19:54:00.793Z,100.00
2022-10-01T19:56:31.380Z,100.00
2022-10-01T19:59:03.070Z,100.00
2022-10-01T20:01:38.408Z,100.00
2022-10-01T20:04:15.928Z,100.00
2022-10-01T20:06:47.153Z,100.00
2022-10-01T20:09:22.467Z,100.00
2022-10-01T20:12:00.670Z,100.00
2022-10-01T20:15:00.243Z,100.00
2022-10-01T20:17:34.982Z,100.00
2022-10-01T20:20:16.184Z,100.00
2022-10-01T20:22:55.067Z,100.00
2022-10-01T20:25:33.594Z,100.00
2022-10-01T20:28:11.431Z,100.00
2022-10-01T20:30:50.692Z,100.00
2022-10-01T20:33:29.687Z,100.00
2022-10-01T20:36:05.296Z,100.00
2022-10-01T20:38:39.326Z,100.00
2022-10-01T20:41:14.272Z,100.00
2022-10-01T20:43:49.105Z,100.00
2022-10-01T20:46:24.913Z,100.00
2022-10-01T20:48:59.237Z,100.00
2022-10-01T20:51:35.884Z,100.00
2022-10-01T20:54:10.447Z,100.00
2022-10-01T20:56:42.652Z,100.00
2022-10-01T20:59:17.997Z,100.00
2022-10-01T21:01:59.143Z,100.00
2022-10-01T21:04:31.890Z,100.00
2022-10-01T21:07:08.718Z,100.00
2022-10-01T21:09:42.336Z,100.00
2022-10-01T21:12:16.460Z,100.00
2022-10-01T21:14:50.660Z,100.00
2022-10-01T21:17:32.960Z,100.00
2022-10-01T21:20:06.024Z,100.00
2022-10-01T21:22:51.317Z,100.00
2022-10-01T21:25:29.703Z,100.00
2022-10-01T21:28:10.287Z,100.00
2022-10-01T21:30:56.939Z,100.00
2022-10-01T21:33:26.939Z,100.00
2022-10-01T21:35:59.723Z,100.00
2022-10-01T21:38:31.948Z,100.00
2022-10-01T21:41:29.346Z,100.00
2022-10-01T21:44:17.120Z,100.00
2022-10-01T21:46:54.820Z,100.00
2022-10-01T21:49:34.161Z,100.00
2022-10-01T21:52:12.022Z,100.00
2022-10-01T21:55:06.787Z,100.00
2022-10-01T21:58:02.537Z,100.00
2022-10-01T22:00:32.324Z,100.00
2022-10-01T22:03:18.992Z,100.00
2022-10-01T22:05:54.754Z,100.00
2022-10-01T22:08:32.661Z,100.00
2022-10-01T22:11:03.597Z,100.00
2022-10-01T22:13:35.293Z,100.00
2022-10-01T22:16:07.590Z,100.00
2022-10-01T22:18:41.947Z,100.00
2022-10-01T22:21:12.977Z,100.00
2022-10-01T22:23:45.738Z,100.00
2022-10-01T22:26:17.994Z,100.00
2022-10-01T22:28:51.124Z,100.00
2022-10-01T22:31:24.595Z,100.00
2022-10-01T22:33:59.360Z,100.00
2022-10-01T22:36:34.663Z,100.00
2022-10-01T22:39:06.059Z,100.00
2022-10-01T22:41:39.135Z,100.00
2022-10-01T22:44:14.409Z,100.00
2022-10-01T22:47:07.974Z,100.00
2022-10-01T22:49:48.859Z,100.00
2022-10-01T22:52:27.026Z,100.00
2022-10-01T22:55:09.368Z,100.00
2022-10-01T22:58:01.335Z,100.00
2022-10-01T23:00:29.230Z,100.00
2022-10-01T23:03:08.221Z,100.00
2022-10-01T23:05:49.670Z,100.00
2022-10-01T23:08:24.937Z,100.00
2022-10-01T23:11:04.638Z,100.00
2022-10-01T23:13:43.277Z,100.00
2022-10-01T23:16:17.821Z,100.00
2022-10-01T23:18:57.988Z,100.00
2022-10-01T23:21:38.458Z,100.00
2022-10-01T23:24:19.788Z,100.00
2022-10-01T23:26:56.652Z,100.00
2022-10-01T23:29:46.272Z,100.00
2022-10-01T23:32:26.813Z,100.00
2022-10-01T23:35:02.023Z,100.00
2022-10-01T23:37:53.340Z,100.00
2022-10-01T23:40:23.559Z,100.00
2022-10-01T23:42:59.392Z,100.00
2022-10-01T23:45:33.408Z,100.00
2022-10-01T23:48:05.768Z,100.00
2022-10-01T23:50:38.556Z,100.00
2022-10-01T23:53:15.682Z,100.00
2022-10-01T23:56:06.259Z,100.00
2022-10-01T23:58:43.456Z,100.00
